Wales, North Dakota
Current Conditions -  °F | °C
As of 3:15 AM on Friday 19 Dec 2014 (Local Time) from KD55 Reporting Station
Haze Haze  
Wind Chill: 11°   Ceiling: 100
Heat Index: 23°   Visibility: 1.7mi
Dew Point: 21°   Wind: 14mph
Humidity: 93%   Direction: 180°S
Pressure: 30.01"   Gusts: 18mph
Location:  48.9°N, 98.6°W
Report Text: KD55 190915Z AUTO 18012G16KT 1 3/4SM BR OVC001 M05/M06 A3001 RMK AO2
Loading
Personal Weather Stations






























Interactive Weather Map New forecast layout! Learn more

10-Day Weather Forecast

Advertisements
Track Severe Weather on mobile